sensor_id;sensor_type;location;lat;lon;timestamp;P1;durP1;ratioP1;P2;durP2;ratioP2
54428;SDS011;40337;52.978;6.310;2023-11-21T00:01:56;23.50;;;11.30;;
54428;SDS011;40337;52.978;6.310;2023-11-21T00:04:22;28.33;;;11.48;;
54428;SDS011;40337;52.978;6.310;2023-11-21T00:06:48;21.45;;;10.77;;
54428;SDS011;40337;52.978;6.310;2023-11-21T00:09:14;18.30;;;10.30;;
54428;SDS011;40337;52.978;6.310;2023-11-21T00:11:43;22.92;;;10.68;;
54428;SDS011;40337;52.978;6.310;2023-11-21T00:14:10;26.23;;;10.95;;
54428;SDS011;40337;52.978;6.310;2023-11-21T00:16:36;25.40;;;11.10;;
54428;SDS011;40337;52.978;6.310;2023-11-21T00:19:02;25.77;;;11.00;;
54428;SDS011;40337;52.978;6.310;2023-11-21T00:21:27;24.52;;;11.85;;
54428;SDS011;40337;52.978;6.310;2023-11-21T00:23:53;25.90;;;11.77;;
54428;SDS011;40337;52.978;6.310;2023-11-21T00:26:18;27.10;;;11.88;;
54428;SDS011;40337;52.978;6.310;2023-11-21T00:28:44;24.20;;;11.45;;
54428;SDS011;40337;52.978;6.310;2023-11-21T00:31:10;21.77;;;11.05;;
54428;SDS011;40337;52.978;6.310;2023-11-21T00:33:36;22.25;;;10.93;;
54428;SDS011;40337;52.978;6.310;2023-11-21T00:36:01;22.75;;;11.32;;
54428;SDS011;40337;52.978;6.310;2023-11-21T00:38:27;28.75;;;11.55;;
54428;SDS011;40337;52.978;6.310;2023-11-21T00:40:53;22.75;;;10.88;;
54428;SDS011;40337;52.978;6.310;2023-11-21T00:43:22;26.58;;;11.90;;
54428;SDS011;40337;52.978;6.310;2023-11-21T00:45:48;26.98;;;11.13;;
54428;SDS011;40337;52.978;6.310;2023-11-21T00:48:14;23.52;;;11.60;;
54428;SDS011;40337;52.978;6.310;2023-11-21T00:50:40;23.80;;;11.40;;
54428;SDS011;40337;52.978;6.310;2023-11-21T00:53:05;27.73;;;12.13;;
54428;SDS011;40337;52.978;6.310;2023-11-21T00:55:32;23.83;;;11.93;;
54428;SDS011;40337;52.978;6.310;2023-11-21T00:57:58;27.27;;;11.95;;
54428;SDS011;40337;52.978;6.310;2023-11-21T01:00:24;29.33;;;12.15;;
54428;SDS011;40337;52.978;6.310;2023-11-21T01:02:50;26.75;;;12.30;;
54428;SDS011;40337;52.978;6.310;2023-11-21T01:05:16;28.60;;;11.70;;
54428;SDS011;40337;52.978;6.310;2023-11-21T01:07:41;26.73;;;12.25;;
54428;SDS011;40337;52.978;6.310;2023-11-21T01:10:07;31.77;;;13.65;;
54428;SDS011;40337;52.978;6.310;2023-11-21T01:12:35;31.33;;;12.50;;
54428;SDS011;40337;52.978;6.310;2023-11-21T01:15:03;32.53;;;13.02;;
54428;SDS011;40337;52.978;6.310;2023-11-21T01:17:32;29.20;;;12.65;;
54428;SDS011;40337;52.978;6.310;2023-11-21T01:20:02;34.58;;;12.95;;
54428;SDS011;40337;52.978;6.310;2023-11-21T01:22:28;30.95;;;13.07;;
54428;SDS011;40337;52.978;6.310;2023-11-21T01:24:54;29.58;;;12.27;;
54428;SDS011;40337;52.978;6.310;2023-11-21T01:27:19;28.23;;;12.52;;
54428;SDS011;40337;52.978;6.310;2023-11-21T01:29:45;27.25;;;13.13;;
54428;SDS011;40337;52.978;6.310;2023-11-21T01:32:11;30.73;;;13.48;;
54428;SDS011;40337;52.978;6.310;2023-11-21T01:34:37;34.47;;;13.45;;
54428;SDS011;40337;52.978;6.310;2023-11-21T01:37:02;29.95;;;12.60;;
54428;SDS011;40337;52.978;6.310;2023-11-21T01:39:30;30.55;;;13.05;;
54428;SDS011;40337;52.978;6.310;2023-11-21T01:41:56;30.92;;;12.85;;
54428;SDS011;40337;52.978;6.310;2023-11-21T01:44:26;39.45;;;13.93;;
54428;SDS011;40337;52.978;6.310;2023-11-21T01:46:51;28.13;;;12.32;;
54428;SDS011;40337;52.978;6.310;2023-11-21T01:49:18;27.35;;;12.48;;
54428;SDS011;40337;52.978;6.310;2023-11-21T01:51:46;34.58;;;13.00;;
54428;SDS011;40337;52.978;6.310;2023-11-21T01:54:14;33.72;;;12.52;;
54428;SDS011;40337;52.978;6.310;2023-11-21T01:56:42;31.25;;;13.07;;
54428;SDS011;40337;52.978;6.310;2023-11-21T01:59:10;29.13;;;12.35;;
54428;SDS011;40337;52.978;6.310;2023-11-21T02:01:36;29.60;;;12.63;;
54428;SDS011;40337;52.978;6.310;2023-11-21T02:04:02;29.92;;;12.90;;
54428;SDS011;40337;52.978;6.310;2023-11-21T02:06:28;30.75;;;12.23;;
54428;SDS011;40337;52.978;6.310;2023-11-21T02:08:56;33.33;;;12.63;;
54428;SDS011;40337;52.978;6.310;2023-11-21T02:11:22;29.13;;;13.40;;
54428;SDS011;40337;52.978;6.310;2023-11-21T02:13:47;29.58;;;13.32;;
54428;SDS011;40337;52.978;6.310;2023-11-21T02:16:15;35.22;;;13.60;;
54428;SDS011;40337;52.978;6.310;2023-11-21T02:18:40;29.20;;;13.40;;
54428;SDS011;40337;52.978;6.310;2023-11-21T02:21:06;29.10;;;13.80;;
54428;SDS011;40337;52.978;6.310;2023-11-21T02:23:32;29.48;;;12.50;;
54428;SDS011;40337;52.978;6.310;2023-11-21T02:25:58;33.15;;;13.32;;
54428;SDS011;40337;52.978;6.310;2023-11-21T02:28:24;29.83;;;13.45;;
54428;SDS011;40337;52.978;6.310;2023-11-21T02:30:51;33.60;;;14.13;;
54428;SDS011;40337;52.978;6.310;2023-11-21T02:33:21;29.13;;;13.00;;
54428;SDS011;40337;52.978;6.310;2023-11-21T02:35:47;26.10;;;13.00;;
54428;SDS011;40337;52.978;6.310;2023-11-21T02:38:12;30.00;;;12.75;;
54428;SDS011;40337;52.978;6.310;2023-11-21T02:40:38;28.05;;;13.43;;
54428;SDS011;40337;52.978;6.310;2023-11-21T02:43:04;34.28;;;14.25;;
54428;SDS011;40337;52.978;6.310;2023-11-21T02:45:31;30.23;;;13.77;;
54428;SDS011;40337;52.978;6.310;2023-11-21T02:47:57;26.20;;;13.60;;
54428;SDS011;40337;52.978;6.310;2023-11-21T02:50:23;29.17;;;13.32;;
54428;SDS011;40337;52.978;6.310;2023-11-21T02:52:49;26.67;;;13.80;;
54428;SDS011;40337;52.978;6.310;2023-11-21T02:55:15;28.25;;;13.50;;
54428;SDS011;40337;52.978;6.310;2023-11-21T02:57:40;29.75;;;13.90;;
54428;SDS011;40337;52.978;6.310;2023-11-21T03:00:06;32.38;;;14.07;;
54428;SDS011;40337;52.978;6.310;2023-11-21T03:02:33;28.98;;;13.65;;
54428;SDS011;40337;52.978;6.310;2023-11-21T03:05:03;28.35;;;13.32;;
54428;SDS011;40337;52.978;6.310;2023-11-21T03:07:30;27.98;;;14.05;;
54428;SDS011;40337;52.978;6.310;2023-11-21T03:09:56;30.38;;;13.82;;
54428;SDS011;40337;52.978;6.310;2023-11-21T03:12:21;27.25;;;14.07;;
54428;SDS011;40337;52.978;6.310;2023-11-21T03:14:47;30.27;;;14.48;;
54428;SDS011;40337;52.978;6.310;2023-11-21T03:17:12;28.73;;;14.43;;
54428;SDS011;40337;52.978;6.310;2023-11-21T03:19:41;30.63;;;15.65;;
54428;SDS011;40337;52.978;6.310;2023-11-21T03:22:06;34.15;;;15.27;;
54428;SDS011;40337;52.978;6.310;2023-11-21T03:24:33;32.70;;;15.07;;
54428;SDS011;40337;52.978;6.310;2023-11-21T03:26:59;33.63;;;15.40;;
54428;SDS011;40337;52.978;6.310;2023-11-21T03:29:25;33.28;;;15.20;;
54428;SDS011;40337;52.978;6.310;2023-11-21T03:31:51;32.60;;;14.88;;
54428;SDS011;40337;52.978;6.310;2023-11-21T03:34:23;35.88;;;14.95;;
54428;SDS011;40337;52.978;6.310;2023-11-21T03:36:52;37.25;;;15.48;;
54428;SDS011;40337;52.978;6.310;2023-11-21T03:39:19;35.88;;;15.00;;
54428;SDS011;40337;52.978;6.310;2023-11-21T03:41:45;26.27;;;14.02;;
54428;SDS011;40337;52.978;6.310;2023-11-21T03:44:10;29.30;;;13.52;;
54428;SDS011;40337;52.978;6.310;2023-11-21T03:46:36;30.15;;;13.80;;
54428;SDS011;40337;52.978;6.310;2023-11-21T03:49:02;33.58;;;14.25;;
54428;SDS011;40337;52.978;6.310;2023-11-21T03:51:27;40.35;;;15.38;;
54428;SDS011;40337;52.978;6.310;2023-11-21T03:53:53;33.85;;;15.07;;
54428;SDS011;40337;52.978;6.310;2023-11-21T03:56:19;31.55;;;14.38;;
54428;SDS011;40337;52.978;6.310;2023-11-21T03:58:47;31.20;;;14.57;;
54428;SDS011;40337;52.978;6.310;2023-11-21T04:01:19;36.50;;;15.15;;
54428;SDS011;40337;52.978;6.310;2023-11-21T04:03:48;31.92;;;15.10;;
54428;SDS011;40337;52.978;6.310;2023-11-21T04:06:14;28.55;;;14.38;;
54428;SDS011;40337;52.978;6.310;2023-11-21T04:08:40;37.70;;;15.57;;
54428;SDS011;40337;52.978;6.310;2023-11-21T04:11:05;52.20;;;17.00;;
54428;SDS011;40337;52.978;6.310;2023-11-21T04:13:31;43.42;;;16.35;;
54428;SDS011;40337;52.978;6.310;2023-11-21T04:15:56;36.72;;;15.13;;
54428;SDS011;40337;52.978;6.310;2023-11-21T04:18:22;31.77;;;15.18;;
54428;SDS011;40337;52.978;6.310;2023-11-21T04:20:50;41.13;;;16.13;;
54428;SDS011;40337;52.978;6.310;2023-11-21T04:23:16;32.65;;;15.23;;
54428;SDS011;40337;52.978;6.310;2023-11-21T04:25:41;39.90;;;16.02;;
54428;SDS011;40337;52.978;6.310;2023-11-21T04:28:07;37.85;;;17.15;;
54428;SDS011;40337;52.978;6.310;2023-11-21T04:30:33;33.90;;;16.50;;
54428;SDS011;40337;52.978;6.310;2023-11-21T04:32:58;33.88;;;17.92;;
54428;SDS011;40337;52.978;6.310;2023-11-21T04:35:24;39.20;;;17.30;;
54428;SDS011;40337;52.978;6.310;2023-11-21T04:37:49;34.15;;;16.92;;
54428;SDS011;40337;52.978;6.310;2023-11-21T04:40:16;35.38;;;18.50;;
54428;SDS011;40337;52.978;6.310;2023-11-21T04:42:41;39.95;;;18.77;;
54428;SDS011;40337;52.978;6.310;2023-11-21T04:45:07;41.80;;;19.45;;
54428;SDS011;40337;52.978;6.310;2023-11-21T04:47:34;45.75;;;20.17;;
54428;SDS011;40337;52.978;6.310;2023-11-21T04:50:00;51.72;;;20.55;;
54428;SDS011;40337;52.978;6.310;2023-11-21T04:52:26;49.15;;;20.13;;
54428;SDS011;40337;52.978;6.310;2023-11-21T04:54:51;47.40;;;20.80;;
54428;SDS011;40337;52.978;6.310;2023-11-21T04:57:19;53.70;;;20.27;;
54428;SDS011;40337;52.978;6.310;2023-11-21T04:59:45;41.15;;;19.58;;
54428;SDS011;40337;52.978;6.310;2023-11-21T05:02:11;69.07;;;22.55;;
54428;SDS011;40337;52.978;6.310;2023-11-21T05:04:37;70.00;;;23.15;;
54428;SDS011;40337;52.978;6.310;2023-11-21T05:07:03;48.53;;;20.45;;
54428;SDS011;40337;52.978;6.310;2023-11-21T05:09:28;51.50;;;20.73;;
54428;SDS011;40337;52.978;6.310;2023-11-21T05:11:57;50.33;;;21.17;;
54428;SDS011;40337;52.978;6.310;2023-11-21T05:14:22;43.53;;;20.27;;
54428;SDS011;40337;52.978;6.310;2023-11-21T05:16:48;53.47;;;22.00;;
54428;SDS011;40337;52.978;6.310;2023-11-21T05:19:16;48.30;;;22.73;;
54428;SDS011;40337;52.978;6.310;2023-11-21T05:21:42;58.53;;;23.13;;
54428;SDS011;40337;52.978;6.310;2023-11-21T05:24:08;49.08;;;21.17;;
54428;SDS011;40337;52.978;6.310;2023-11-21T05:26:34;54.47;;;21.83;;
54428;SDS011;40337;52.978;6.310;2023-11-21T05:29:00;41.40;;;20.35;;
54428;SDS011;40337;52.978;6.310;2023-11-21T05:31:25;52.95;;;20.90;;
54428;SDS011;40337;52.978;6.310;2023-11-21T05:33:52;54.70;;;20.33;;
54428;SDS011;40337;52.978;6.310;2023-11-21T05:36:18;42.28;;;20.15;;
54428;SDS011;40337;52.978;6.310;2023-11-21T05:38:43;44.63;;;20.17;;
54428;SDS011;40337;52.978;6.310;2023-11-21T05:41:09;45.55;;;20.35;;
54428;SDS011;40337;52.978;6.310;2023-11-21T05:43:38;44.00;;;19.30;;
54428;SDS011;40337;52.978;6.310;2023-11-21T05:46:04;53.15;;;20.85;;
54428;SDS011;40337;52.978;6.310;2023-11-21T05:48:32;50.42;;;20.90;;
54428;SDS011;40337;52.978;6.310;2023-11-21T05:50:57;54.33;;;21.08;;
54428;SDS011;40337;52.978;6.310;2023-11-21T05:53:24;52.85;;;20.35;;
54428;SDS011;40337;52.978;6.310;2023-11-21T05:55:49;57.15;;;21.55;;
54428;SDS011;40337;52.978;6.310;2023-11-21T05:58:15;54.55;;;21.20;;
54428;SDS011;40337;52.978;6.310;2023-11-21T06:00:41;39.55;;;18.88;;
54428;SDS011;40337;52.978;6.310;2023-11-21T06:03:06;54.75;;;20.20;;
54428;SDS011;40337;52.978;6.310;2023-11-21T06:05:33;41.47;;;19.15;;
54428;SDS011;40337;52.978;6.310;2023-11-21T06:07:59;44.10;;;20.52;;
54428;SDS011;40337;52.978;6.310;2023-11-21T06:10:25;44.03;;;19.83;;
54428;SDS011;40337;52.978;6.310;2023-11-21T06:12:52;41.90;;;20.02;;
54428;SDS011;40337;52.978;6.310;2023-11-21T06:15:18;42.38;;;19.83;;
54428;SDS011;40337;52.978;6.310;2023-11-21T06:17:48;43.95;;;21.13;;
54428;SDS011;40337;52.978;6.310;2023-11-21T06:20:17;50.00;;;20.83;;
54428;SDS011;40337;52.978;6.310;2023-11-21T06:22:44;46.58;;;20.58;;
54428;SDS011;40337;52.978;6.310;2023-11-21T06:25:11;53.92;;;21.05;;
54428;SDS011;40337;52.978;6.310;2023-11-21T06:27:41;44.80;;;20.55;;
54428;SDS011;40337;52.978;6.310;2023-11-21T06:30:08;39.90;;;17.65;;
54428;SDS011;40337;52.978;6.310;2023-11-21T06:32:34;39.92;;;18.75;;
54428;SDS011;40337;52.978;6.310;2023-11-21T06:35:01;40.65;;;18.90;;
54428;SDS011;40337;52.978;6.310;2023-11-21T06:37:29;35.30;;;16.58;;
54428;SDS011;40337;52.978;6.310;2023-11-21T06:39:54;31.13;;;16.55;;
54428;SDS011;40337;52.978;6.310;2023-11-21T06:42:21;32.03;;;16.45;;
54428;SDS011;40337;52.978;6.310;2023-11-21T06:44:48;35.08;;;16.88;;
54428;SDS011;40337;52.978;6.310;2023-11-21T06:47:16;34.20;;;16.08;;
54428;SDS011;40337;52.978;6.310;2023-11-21T06:49:42;36.25;;;16.00;;
54428;SDS011;40337;52.978;6.310;2023-11-21T06:52:08;30.80;;;15.60;;
54428;SDS011;40337;52.978;6.310;2023-11-21T06:54:34;26.02;;;14.32;;
54428;SDS011;40337;52.978;6.310;2023-11-21T06:57:00;34.85;;;16.13;;
54428;SDS011;40337;52.978;6.310;2023-11-21T06:59:28;26.83;;;14.73;;
54428;SDS011;40337;52.978;6.310;2023-11-21T07:01:53;29.00;;;14.70;;
54428;SDS011;40337;52.978;6.310;2023-11-21T07:04:19;27.40;;;14.43;;
54428;SDS011;40337;52.978;6.310;2023-11-21T07:06:45;23.50;;;13.70;;
54428;SDS011;40337;52.978;6.310;2023-11-21T07:09:11;24.77;;;14.55;;
54428;SDS011;40337;52.978;6.310;2023-11-21T07:11:37;26.98;;;14.50;;
54428;SDS011;40337;52.978;6.310;2023-11-21T07:14:06;26.83;;;14.80;;
54428;SDS011;40337;52.978;6.310;2023-11-21T07:16:35;24.02;;;13.57;;
54428;SDS011;40337;52.978;6.310;2023-11-21T07:19:03;23.10;;;13.55;;
54428;SDS011;40337;52.978;6.310;2023-11-21T07:21:32;25.38;;;13.18;;
54428;SDS011;40337;52.978;6.310;2023-11-21T07:24:01;24.15;;;13.05;;
54428;SDS011;40337;52.978;6.310;2023-11-21T07:26:27;26.58;;;14.27;;
54428;SDS011;40337;52.978;6.310;2023-11-21T07:28:53;25.65;;;14.40;;
54428;SDS011;40337;52.978;6.310;2023-11-21T07:31:19;27.95;;;14.68;;
54428;SDS011;40337;52.978;6.310;2023-11-21T07:33:45;25.70;;;13.70;;
54428;SDS011;40337;52.978;6.310;2023-11-21T07:36:12;24.95;;;14.60;;
54428;SDS011;40337;52.978;6.310;2023-11-21T07:38:38;25.98;;;14.25;;
54428;SDS011;40337;52.978;6.310;2023-11-21T07:41:05;26.92;;;14.88;;
54428;SDS011;40337;52.978;6.310;2023-11-21T07:43:32;23.00;;;13.48;;
54428;SDS011;40337;52.978;6.310;2023-11-21T07:46:01;26.52;;;14.43;;
54428;SDS011;40337;52.978;6.310;2023-11-21T07:48:31;25.02;;;13.93;;
54428;SDS011;40337;52.978;6.310;2023-11-21T07:50:57;24.92;;;13.70;;
54428;SDS011;40337;52.978;6.310;2023-11-21T07:53:24;26.52;;;14.07;;
54428;SDS011;40337;52.978;6.310;2023-11-21T07:55:56;22.75;;;13.60;;
54428;SDS011;40337;52.978;6.310;2023-11-21T07:58:22;26.27;;;13.55;;
54428;SDS011;40337;52.978;6.310;2023-11-21T08:00:48;26.73;;;13.88;;
54428;SDS011;40337;52.978;6.310;2023-11-21T08:03:15;29.30;;;14.77;;
54428;SDS011;40337;52.978;6.310;2023-11-21T08:05:41;26.15;;;13.77;;
54428;SDS011;40337;52.978;6.310;2023-11-21T08:08:07;27.30;;;14.40;;
54428;SDS011;40337;52.978;6.310;2023-11-21T08:10:33;27.48;;;14.15;;
54428;SDS011;40337;52.978;6.310;2023-11-21T08:13:00;28.10;;;14.70;;
54428;SDS011;40337;52.978;6.310;2023-11-21T08:15:26;27.77;;;14.38;;
54428;SDS011;40337;52.978;6.310;2023-11-21T08:17:52;26.17;;;14.50;;
54428;SDS011;40337;52.978;6.310;2023-11-21T08:20:18;25.33;;;14.05;;
54428;SDS011;40337;52.978;6.310;2023-11-21T08:22:44;22.65;;;13.20;;
54428;SDS011;40337;52.978;6.310;2023-11-21T08:25:10;20.25;;;12.20;;
54428;SDS011;40337;52.978;6.310;2023-11-21T08:27:36;22.23;;;12.07;;
54428;SDS011;40337;52.978;6.310;2023-11-21T08:30:02;19.55;;;12.15;;
54428;SDS011;40337;52.978;6.310;2023-11-21T08:32:29;20.27;;;11.93;;
54428;SDS011;40337;52.978;6.310;2023-11-21T08:34:58;18.92;;;12.23;;
54428;SDS011;40337;52.978;6.310;2023-11-21T08:37:24;19.73;;;11.88;;
54428;SDS011;40337;52.978;6.310;2023-11-21T08:39:52;19.77;;;12.38;;
54428;SDS011;40337;52.978;6.310;2023-11-21T08:42:18;19.15;;;11.88;;
54428;SDS011;40337;52.978;6.310;2023-11-21T08:44:44;16.27;;;10.38;;
54428;SDS011;40337;52.978;6.310;2023-11-21T08:47:11;18.38;;;11.75;;
54428;SDS011;40337;52.978;6.310;2023-11-21T08:49:37;17.58;;;11.30;;
54428;SDS011;40337;52.978;6.310;2023-11-21T08:52:03;18.77;;;11.02;;
54428;SDS011;40337;52.978;6.310;2023-11-21T08:54:30;20.35;;;13.27;;
54428;SDS011;40337;52.978;6.310;2023-11-21T08:56:56;22.52;;;15.13;;
54428;SDS011;40337;52.978;6.310;2023-11-21T08:59:23;24.90;;;14.30;;
54428;SDS011;40337;52.978;6.310;2023-11-21T09:01:49;25.38;;;16.00;;
54428;SDS011;40337;52.978;6.310;2023-11-21T09:04:15;22.40;;;14.88;;
54428;SDS011;40337;52.978;6.310;2023-11-21T09:06:41;24.17;;;14.45;;
54428;SDS011;40337;52.978;6.310;2023-11-21T09:09:07;24.92;;;15.25;;
54428;SDS011;40337;52.978;6.310;2023-11-21T09:11:35;22.85;;;15.25;;
54428;SDS011;40337;52.978;6.310;2023-11-21T09:14:01;22.25;;;15.13;;
54428;SDS011;40337;52.978;6.310;2023-11-21T09:16:28;21.23;;;15.07;;
54428;SDS011;40337;52.978;6.310;2023-11-21T09:18:54;23.15;;;15.07;;
54428;SDS011;40337;52.978;6.310;2023-11-21T09:21:19;23.05;;;15.23;;
54428;SDS011;40337;52.978;6.310;2023-11-21T09:23:45;24.58;;;16.83;;
54428;SDS011;40337;52.978;6.310;2023-11-21T09:26:11;26.50;;;17.88;;
54428;SDS011;40337;52.978;6.310;2023-11-21T09:28:37;24.40;;;17.15;;
54428;SDS011;40337;52.978;6.310;2023-11-21T09:31:03;21.00;;;15.38;;
54428;SDS011;40337;52.978;6.310;2023-11-21T09:33:30;22.00;;;16.92;;
54428;SDS011;40337;52.978;6.310;2023-11-21T09:35:56;23.20;;;16.70;;
54428;SDS011;40337;52.978;6.310;2023-11-21T09:38:22;21.13;;;16.45;;
54428;SDS011;40337;52.978;6.310;2023-11-21T09:40:48;21.85;;;16.45;;
54428;SDS011;40337;52.978;6.310;2023-11-21T09:43:18;21.00;;;15.63;;
54428;SDS011;40337;52.978;6.310;2023-11-21T09:45:47;21.95;;;17.27;;
54428;SDS011;40337;52.978;6.310;2023-11-21T09:50:45;21.02;;;16.90;;
54428;SDS011;40337;52.978;6.310;2023-11-21T09:53:13;20.38;;;17.10;;
54428;SDS011;40337;52.978;6.310;2023-11-21T09:55:48;21.33;;;16.75;;
54428;SDS011;40337;52.978;6.310;2023-11-21T09:58:16;19.80;;;16.60;;
54428;SDS011;40337;52.978;6.310;2023-11-21T10:00:42;22.08;;;16.45;;
54428;SDS011;40337;52.978;6.310;2023-11-21T10:03:09;17.60;;;15.63;;
54428;SDS011;40337;52.978;6.310;2023-11-21T10:05:38;17.70;;;14.75;;
54428;SDS011;40337;52.978;6.310;2023-11-21T10:08:07;17.90;;;15.95;;
54428;SDS011;40337;52.978;6.310;2023-11-21T10:10:35;17.80;;;15.40;;
54428;SDS011;40337;52.978;6.310;2023-11-21T10:13:03;18.17;;;15.18;;
54428;SDS011;40337;52.978;6.310;2023-11-21T10:15:33;16.27;;;14.10;;
54428;SDS011;40337;52.978;6.310;2023-11-21T10:18:03;17.33;;;14.13;;
54428;SDS011;40337;52.978;6.310;2023-11-21T10:20:30;15.85;;;13.80;;
54428;SDS011;40337;52.978;6.310;2023-11-21T10:22:56;16.30;;;14.18;;
54428;SDS011;40337;52.978;6.310;2023-11-21T10:25:22;17.33;;;13.60;;
54428;SDS011;40337;52.978;6.310;2023-11-21T10:27:48;17.85;;;14.55;;
54428;SDS011;40337;52.978;6.310;2023-11-21T10:30:17;16.73;;;13.70;;
54428;SDS011;40337;52.978;6.310;2023-11-21T10:32:43;16.67;;;13.63;;
54428;SDS011;40337;52.978;6.310;2023-11-21T10:35:09;15.57;;;13.85;;
54428;SDS011;40337;52.978;6.310;2023-11-21T10:37:39;16.48;;;14.68;;
54428;SDS011;40337;52.978;6.310;2023-11-21T10:40:08;16.27;;;14.13;;
54428;SDS011;40337;52.978;6.310;2023-11-21T10:42:39;15.85;;;14.05;;
54428;SDS011;40337;52.978;6.310;2023-11-21T10:45:05;16.15;;;14.38;;
54428;SDS011;40337;52.978;6.310;2023-11-21T10:47:38;16.67;;;14.27;;
54428;SDS011;40337;52.978;6.310;2023-11-21T10:50:05;16.75;;;13.82;;
54428;SDS011;40337;52.978;6.310;2023-11-21T10:52:31;16.30;;;14.32;;
54428;SDS011;40337;52.978;6.310;2023-11-21T10:54:56;15.10;;;13.50;;
54428;SDS011;40337;52.978;6.310;2023-11-21T10:57:24;17.15;;;13.75;;
54428;SDS011;40337;52.978;6.310;2023-11-21T10:59:50;17.02;;;13.95;;
54428;SDS011;40337;52.978;6.310;2023-11-21T11:02:23;15.43;;;13.80;;
54428;SDS011;40337;52.978;6.310;2023-11-21T11:04:53;15.65;;;13.68;;
54428;SDS011;40337;52.978;6.310;2023-11-21T11:07:21;14.20;;;12.30;;
54428;SDS011;40337;52.978;6.310;2023-11-21T11:09:52;17.35;;;13.55;;
54428;SDS011;40337;52.978;6.310;2023-11-21T11:12:19;14.38;;;12.88;;
54428;SDS011;40337;52.978;6.310;2023-11-21T11:14:45;14.07;;;12.52;;
54428;SDS011;40337;52.978;6.310;2023-11-21T11:17:10;13.25;;;11.85;;
54428;SDS011;40337;52.978;6.310;2023-11-21T11:19:36;12.10;;;10.80;;
54428;SDS011;40337;52.978;6.310;2023-11-21T11:27:57;11.40;;;9.45;;
54428;SDS011;40337;52.978;6.310;2023-11-21T11:30:41;11.40;;;10.05;;
54428;SDS011;40337;52.978;6.310;2023-11-21T11:33:42;13.32;;;10.07;;
54428;SDS011;40337;52.978;6.310;2023-11-21T11:36:17;11.40;;;9.32;;
54428;SDS011;40337;52.978;6.310;2023-11-21T11:38:53;10.38;;;9.20;;
54428;SDS011;40337;52.978;6.310;2023-11-21T11:41:24;11.05;;;9.20;;
54428;SDS011;40337;52.978;6.310;2023-11-21T11:43:55;10.75;;;9.55;;
54428;SDS011;40337;52.978;6.310;2023-11-21T11:46:22;10.65;;;8.80;;
54428;SDS011;40337;52.978;6.310;2023-11-21T11:49:10;10.52;;;8.80;;
54428;SDS011;40337;52.978;6.310;2023-11-21T11:51:36;10.13;;;8.63;;
54428;SDS011;40337;52.978;6.310;2023-11-21T11:54:02;10.60;;;8.80;;
54428;SDS011;40337;52.978;6.310;2023-11-21T11:56:29;10.50;;;8.23;;
54428;SDS011;40337;52.978;6.310;2023-11-21T11:59:00;10.20;;;8.43;;
54428;SDS011;40337;52.978;6.310;2023-11-21T12:01:34;10.48;;;8.15;;
54428;SDS011;40337;52.978;6.310;2023-11-21T12:06:48;9.68;;;8.02;;
54428;SDS011;40337;52.978;6.310;2023-11-21T12:09:18;9.85;;;7.97;;
54428;SDS011;40337;52.978;6.310;2023-11-21T12:11:49;9.55;;;7.97;;
54428;SDS011;40337;52.978;6.310;2023-11-21T12:14:15;9.65;;;7.53;;
54428;SDS011;40337;52.978;6.310;2023-11-21T12:16:42;8.38;;;7.20;;
54428;SDS011;40337;52.978;6.310;2023-11-21T12:19:08;14.35;;;8.30;;
54428;SDS011;40337;52.978;6.310;2023-11-21T12:21:37;9.50;;;7.65;;
54428;SDS011;40337;52.978;6.310;2023-11-21T12:24:04;9.77;;;7.85;;
54428;SDS011;40337;52.978;6.310;2023-11-21T12:26:33;8.57;;;7.07;;
54428;SDS011;40337;52.978;6.310;2023-11-21T12:29:02;9.07;;;7.10;;
54428;SDS011;40337;52.978;6.310;2023-11-21T12:31:29;9.45;;;7.32;;
54428;SDS011;40337;52.978;6.310;2023-11-21T12:33:55;9.32;;;7.45;;
54428;SDS011;40337;52.978;6.310;2023-11-21T12:36:22;9.15;;;7.35;;
54428;SDS011;40337;52.978;6.310;2023-11-21T12:38:48;8.50;;;6.82;;
54428;SDS011;40337;52.978;6.310;2023-11-21T12:41:14;8.23;;;6.40;;
54428;SDS011;40337;52.978;6.310;2023-11-21T12:43:42;7.28;;;5.85;;
54428;SDS011;40337;52.978;6.310;2023-11-21T12:46:09;8.55;;;5.88;;
54428;SDS011;40337;52.978;6.310;2023-11-21T12:48:41;7.80;;;5.97;;
54428;SDS011;40337;52.978;6.310;2023-11-21T12:51:08;10.20;;;5.90;;
54428;SDS011;40337;52.978;6.310;2023-11-21T12:53:34;8.45;;;6.28;;
54428;SDS011;40337;52.978;6.310;2023-11-21T12:56:07;8.73;;;6.30;;
54428;SDS011;40337;52.978;6.310;2023-11-21T12:58:35;6.47;;;5.68;;
54428;SDS011;40337;52.978;6.310;2023-11-21T13:01:04;7.88;;;5.97;;
54428;SDS011;40337;52.978;6.310;2023-11-21T13:03:30;7.65;;;6.03;;
54428;SDS011;40337;52.978;6.310;2023-11-21T13:05:56;6.78;;;5.80;;
54428;SDS011;40337;52.978;6.310;2023-11-21T13:08:24;7.72;;;5.97;;
54428;SDS011;40337;52.978;6.310;2023-11-21T13:10:51;8.35;;;6.05;;
54428;SDS011;40337;52.978;6.310;2023-11-21T13:13:19;8.52;;;6.25;;
54428;SDS011;40337;52.978;6.310;2023-11-21T13:15:52;7.60;;;5.80;;
54428;SDS011;40337;52.978;6.310;2023-11-21T13:18:23;7.05;;;5.82;;
54428;SDS011;40337;52.978;6.310;2023-11-21T13:20:49;7.68;;;5.95;;
54428;SDS011;40337;52.978;6.310;2023-11-21T13:23:15;8.10;;;6.10;;
54428;SDS011;40337;52.978;6.310;2023-11-21T13:25:41;8.18;;;5.75;;
54428;SDS011;40337;52.978;6.310;2023-11-21T13:28:10;7.22;;;5.55;;
54428;SDS011;40337;52.978;6.310;2023-11-21T13:30:36;7.50;;;5.90;;
54428;SDS011;40337;52.978;6.310;2023-11-21T13:33:04;6.97;;;5.68;;
54428;SDS011;40337;52.978;6.310;2023-11-21T13:35:35;8.35;;;5.38;;
54428;SDS011;40337;52.978;6.310;2023-11-21T13:38:11;7.38;;;5.60;;
54428;SDS011;40337;52.978;6.310;2023-11-21T13:40:38;6.38;;;5.10;;
54428;SDS011;40337;52.978;6.310;2023-11-21T13:43:11;6.50;;;5.03;;
54428;SDS011;40337;52.978;6.310;2023-11-21T13:45:38;7.43;;;5.53;;
54428;SDS011;40337;52.978;6.310;2023-11-21T13:48:08;6.90;;;5.07;;
54428;SDS011;40337;52.978;6.310;2023-11-21T13:50:42;6.30;;;4.80;;
54428;SDS011;40337;52.978;6.310;2023-11-21T13:53:23;7.78;;;5.47;;
54428;SDS011;40337;52.978;6.310;2023-11-21T13:55:49;6.97;;;5.15;;
54428;SDS011;40337;52.978;6.310;2023-11-21T13:58:16;7.50;;;5.15;;
54428;SDS011;40337;52.978;6.310;2023-11-21T14:00:49;6.55;;;5.00;;
54428;SDS011;40337;52.978;6.310;2023-11-21T14:03:22;7.43;;;5.15;;
54428;SDS011;40337;52.978;6.310;2023-11-21T14:06:09;8.02;;;4.97;;
54428;SDS011;40337;52.978;6.310;2023-11-21T14:08:39;6.65;;;5.00;;
54428;SDS011;40337;52.978;6.310;2023-11-21T14:11:06;7.38;;;5.43;;
54428;SDS011;40337;52.978;6.310;2023-11-21T14:13:32;6.72;;;5.20;;
54428;SDS011;40337;52.978;6.310;2023-11-21T14:15:58;8.18;;;5.60;;
54428;SDS011;40337;52.978;6.310;2023-11-21T14:18:26;8.13;;;6.10;;
54428;SDS011;40337;52.978;6.310;2023-11-21T14:20:56;8.18;;;5.90;;
54428;SDS011;40337;52.978;6.310;2023-11-21T14:23:22;7.53;;;5.93;;
54428;SDS011;40337;52.978;6.310;2023-11-21T14:25:48;8.50;;;6.13;;
54428;SDS011;40337;52.978;6.310;2023-11-21T14:28:15;7.95;;;6.03;;
54428;SDS011;40337;52.978;6.310;2023-11-21T14:30:40;8.10;;;6.35;;
54428;SDS011;40337;52.978;6.310;2023-11-21T14:33:07;8.45;;;6.53;;
54428;SDS011;40337;52.978;6.310;2023-11-21T14:35:36;7.70;;;6.25;;
54428;SDS011;40337;52.978;6.310;2023-11-21T14:38:02;9.10;;;6.68;;